sensor_id;sensor_type;location;lat;lon;timestamp;P1;durP1;ratioP1;P2;durP2;ratioP2
4061;SDS011;2046;47.064;15.456;2022-09-27T00:00:37;3.47;;;2.10;;
4061;SDS011;2046;47.064;15.456;2022-09-27T00:03:06;2.15;;;1.98;;
4061;SDS011;2046;47.064;15.456;2022-09-27T00:05:33;2.95;;;2.20;;
4061;SDS011;2046;47.064;15.456;2022-09-27T00:08:00;2.10;;;2.00;;
4061;SDS011;2046;47.064;15.456;2022-09-27T00:10:26;3.17;;;2.15;;
4061;SDS011;2046;47.064;15.456;2022-09-27T00:12:54;3.42;;;2.25;;
4061;SDS011;2046;47.064;15.456;2022-09-27T00:15:21;3.28;;;2.10;;
4061;SDS011;2046;47.064;15.456;2022-09-27T00:17:47;2.30;;;2.10;;
4061;SDS011;2046;47.064;15.456;2022-09-27T00:20:17;1.73;;;1.60;;
4061;SDS011;2046;47.064;15.456;2022-09-27T00:22:45;2.92;;;2.00;;
4061;SDS011;2046;47.064;15.456;2022-09-27T00:25:12;1.98;;;1.88;;
4061;SDS011;2046;47.064;15.456;2022-09-27T00:27:38;2.20;;;2.00;;
4061;SDS011;2046;47.064;15.456;2022-09-27T00:30:05;2.25;;;2.05;;
4061;SDS011;2046;47.064;15.456;2022-09-27T00:32:31;2.83;;;2.00;;
4061;SDS011;2046;47.064;15.456;2022-09-27T00:34:58;2.65;;;2.30;;
4061;SDS011;2046;47.064;15.456;2022-09-27T00:37:25;2.25;;;2.00;;
4061;SDS011;2046;47.064;15.456;2022-09-27T00:39:52;2.60;;;2.20;;
4061;SDS011;2046;47.064;15.456;2022-09-27T00:42:19;2.45;;;2.05;;
4061;SDS011;2046;47.064;15.456;2022-09-27T00:49:50;3.28;;;2.10;;
4061;SDS011;2046;47.064;15.456;2022-09-27T00:52:19;2.08;;;1.83;;
4061;SDS011;2046;47.064;15.456;2022-09-27T00:54:47;2.47;;;2.08;;
4061;SDS011;2046;47.064;15.456;2022-09-27T00:57:15;2.42;;;2.20;;
4061;SDS011;2046;47.064;15.456;2022-09-27T00:59:53;2.47;;;2.00;;
4061;SDS011;2046;47.064;15.456;2022-09-27T01:02:22;2.40;;;2.20;;
4061;SDS011;2046;47.064;15.456;2022-09-27T01:04:49;2.33;;;2.13;;
4061;SDS011;2046;47.064;15.456;2022-09-27T01:07:16;2.47;;;2.20;;
4061;SDS011;2046;47.064;15.456;2022-09-27T01:09:42;2.47;;;1.90;;
4061;SDS011;2046;47.064;15.456;2022-09-27T01:17:23;2.03;;;1.83;;
4061;SDS011;2046;47.064;15.456;2022-09-27T01:25:57;2.28;;;2.08;;
4061;SDS011;2046;47.064;15.456;2022-09-27T01:38:33;2.38;;;2.17;;
4061;SDS011;2046;47.064;15.456;2022-09-27T01:41:11;3.78;;;2.30;;
4061;SDS011;2046;47.064;15.456;2022-09-27T01:43:45;2.10;;;1.90;;
4061;SDS011;2046;47.064;15.456;2022-09-27T01:46:23;2.20;;;2.00;;
4061;SDS011;2046;47.064;15.456;2022-09-27T01:48:51;2.13;;;1.92;;
4061;SDS011;2046;47.064;15.456;2022-09-27T01:51:22;2.45;;;2.25;;
4061;SDS011;2046;47.064;15.456;2022-09-27T01:53:53;2.15;;;1.95;;
4061;SDS011;2046;47.064;15.456;2022-09-27T01:56:21;3.13;;;2.08;;
4061;SDS011;2046;47.064;15.456;2022-09-27T01:59:33;2.85;;;1.90;;
4061;SDS011;2046;47.064;15.456;2022-09-27T02:01:40;2.83;;;2.00;;
4061;SDS011;2046;47.064;15.456;2022-09-27T02:04:09;2.17;;;1.83;;
4061;SDS011;2046;47.064;15.456;2022-09-27T02:06:40;2.78;;;2.20;;
4061;SDS011;2046;47.064;15.456;2022-09-27T02:12:01;2.53;;;1.90;;
4061;SDS011;2046;47.064;15.456;2022-09-27T02:19:49;1.92;;;1.75;;
4061;SDS011;2046;47.064;15.456;2022-09-27T02:27:16;2.25;;;1.90;;
4061;SDS011;2046;47.064;15.456;2022-09-27T02:29:48;2.40;;;2.20;;
4061;SDS011;2046;47.064;15.456;2022-09-27T02:32:19;2.88;;;1.98;;
4061;SDS011;2046;47.064;15.456;2022-09-27T02:34:45;2.20;;;2.00;;
4061;SDS011;2046;47.064;15.456;2022-09-27T02:37:13;2.25;;;2.00;;
4061;SDS011;2046;47.064;15.456;2022-09-27T02:39:39;3.15;;;2.08;;
4061;SDS011;2046;47.064;15.456;2022-09-27T02:42:06;1.77;;;1.67;;
4061;SDS011;2046;47.064;15.456;2022-09-27T02:44:33;2.00;;;1.90;;
4061;SDS011;2046;47.064;15.456;2022-09-27T02:49:51;2.28;;;1.85;;
4061;SDS011;2046;47.064;15.456;2022-09-27T02:57:20;1.90;;;1.80;;
4061;SDS011;2046;47.064;15.456;2022-09-27T03:02:22;2.00;;;1.80;;
4061;SDS011;2046;47.064;15.456;2022-09-27T03:04:54;2.78;;;1.85;;
4061;SDS011;2046;47.064;15.456;2022-09-27T03:07:21;3.72;;;1.92;;
4061;SDS011;2046;47.064;15.456;2022-09-27T03:09:49;2.13;;;1.95;;
4061;SDS011;2046;47.064;15.456;2022-09-27T03:12:17;2.10;;;1.85;;
4061;SDS011;2046;47.064;15.456;2022-09-27T03:14:54;2.65;;;2.00;;
4061;SDS011;2046;47.064;15.456;2022-09-27T03:17:21;2.00;;;1.90;;
4061;SDS011;2046;47.064;15.456;2022-09-27T03:19:48;2.55;;;1.88;;
4061;SDS011;2046;47.064;15.456;2022-09-27T03:22:15;2.03;;;1.77;;
4061;SDS011;2046;47.064;15.456;2022-09-27T03:24:42;1.88;;;1.77;;
4061;SDS011;2046;47.064;15.456;2022-09-27T03:27:09;1.95;;;1.77;;
4061;SDS011;2046;47.064;15.456;2022-09-27T03:29:35;4.03;;;1.77;;
4061;SDS011;2046;47.064;15.456;2022-09-27T03:32:02;4.55;;;1.90;;
4061;SDS011;2046;47.064;15.456;2022-09-27T03:34:29;4.22;;;2.20;;
4061;SDS011;2046;47.064;15.456;2022-09-27T03:36:56;2.00;;;1.52;;
4061;SDS011;2046;47.064;15.456;2022-09-27T03:39:22;1.77;;;1.67;;
4061;SDS011;2046;47.064;15.456;2022-09-27T03:41:49;2.08;;;1.88;;
4061;SDS011;2046;47.064;15.456;2022-09-27T03:44:15;1.80;;;1.70;;
4061;SDS011;2046;47.064;15.456;2022-09-27T03:46:42;2.47;;;2.28;;
4061;SDS011;2046;47.064;15.456;2022-09-27T03:49:09;1.85;;;1.75;;
4061;SDS011;2046;47.064;15.456;2022-09-27T03:51:35;1.77;;;1.60;;
4061;SDS011;2046;47.064;15.456;2022-09-27T03:54:02;1.85;;;1.67;;
4061;SDS011;2046;47.064;15.456;2022-09-27T03:56:29;1.60;;;1.50;;
4061;SDS011;2046;47.064;15.456;2022-09-27T03:58:55;3.88;;;2.10;;
4061;SDS011;2046;47.064;15.456;2022-09-27T04:01:22;2.10;;;1.80;;
4061;SDS011;2046;47.064;15.456;2022-09-27T04:03:49;3.13;;;1.60;;
4061;SDS011;2046;47.064;15.456;2022-09-27T04:06:15;1.90;;;1.80;;
4061;SDS011;2046;47.064;15.456;2022-09-27T04:08:43;1.80;;;1.70;;
4061;SDS011;2046;47.064;15.456;2022-09-27T04:11:10;1.70;;;1.60;;
4061;SDS011;2046;47.064;15.456;2022-09-27T04:13:37;2.28;;;2.00;;
4061;SDS011;2046;47.064;15.456;2022-09-27T04:16:03;1.88;;;1.77;;
4061;SDS011;2046;47.064;15.456;2022-09-27T04:18:30;1.77;;;1.67;;
4061;SDS011;2046;47.064;15.456;2022-09-27T04:20:57;1.60;;;1.50;;
4061;SDS011;2046;47.064;15.456;2022-09-27T04:23:23;2.38;;;2.00;;
4061;SDS011;2046;47.064;15.456;2022-09-27T04:25:55;1.83;;;1.58;;
4061;SDS011;2046;47.064;15.456;2022-09-27T04:28:22;1.70;;;1.60;;
4061;SDS011;2046;47.064;15.456;2022-09-27T04:30:48;2.40;;;1.65;;
4061;SDS011;2046;47.064;15.456;2022-09-27T04:33:15;1.92;;;1.80;;
4061;SDS011;2046;47.064;15.456;2022-09-27T04:35:42;2.28;;;1.98;;
4061;SDS011;2046;47.064;15.456;2022-09-27T04:38:27;2.63;;;1.63;;
4061;SDS011;2046;47.064;15.456;2022-09-27T04:40:54;1.70;;;1.60;;
4061;SDS011;2046;47.064;15.456;2022-09-27T04:43:21;2.05;;;1.63;;
4061;SDS011;2046;47.064;15.456;2022-09-27T04:45:48;2.35;;;1.67;;
4061;SDS011;2046;47.064;15.456;2022-09-27T04:48:14;1.88;;;1.75;;
4061;SDS011;2046;47.064;15.456;2022-09-27T04:50:41;3.20;;;1.90;;
4061;SDS011;2046;47.064;15.456;2022-09-27T04:53:11;1.90;;;1.77;;
4061;SDS011;2046;47.064;15.456;2022-09-27T04:55:39;1.67;;;1.58;;
4061;SDS011;2046;47.064;15.456;2022-09-27T04:58:05;1.60;;;1.50;;
4061;SDS011;2046;47.064;15.456;2022-09-27T05:00:32;2.63;;;1.70;;
4061;SDS011;2046;47.064;15.456;2022-09-27T05:02:58;3.75;;;2.03;;
4061;SDS011;2046;47.064;15.456;2022-09-27T05:05:25;1.85;;;1.73;;
4061;SDS011;2046;47.064;15.456;2022-09-27T05:07:52;2.65;;;1.88;;
4061;SDS011;2046;47.064;15.456;2022-09-27T05:10:18;2.47;;;2.05;;
4061;SDS011;2046;47.064;15.456;2022-09-27T05:12:45;2.97;;;2.25;;
4061;SDS011;2046;47.064;15.456;2022-09-27T05:15:11;2.10;;;1.80;;
4061;SDS011;2046;47.064;15.456;2022-09-27T05:17:38;1.73;;;1.58;;
4061;SDS011;2046;47.064;15.456;2022-09-27T05:20:04;2.25;;;1.98;;
4061;SDS011;2046;47.064;15.456;2022-09-27T05:22:31;2.40;;;1.73;;
4061;SDS011;2046;47.064;15.456;2022-09-27T05:24:57;2.40;;;1.98;;
4061;SDS011;2046;47.064;15.456;2022-09-27T05:27:24;2.40;;;2.20;;
4061;SDS011;2046;47.064;15.456;2022-09-27T05:29:51;2.10;;;1.90;;
4061;SDS011;2046;47.064;15.456;2022-09-27T05:32:18;3.00;;;1.75;;
4061;SDS011;2046;47.064;15.456;2022-09-27T05:34:44;1.60;;;1.50;;
4061;SDS011;2046;47.064;15.456;2022-09-27T05:37:11;2.08;;;1.85;;
4061;SDS011;2046;47.064;15.456;2022-09-27T05:39:38;2.28;;;1.67;;
4061;SDS011;2046;47.064;15.456;2022-09-27T05:42:04;1.85;;;1.75;;
4061;SDS011;2046;47.064;15.456;2022-09-27T05:44:33;4.72;;;2.20;;
4061;SDS011;2046;47.064;15.456;2022-09-27T05:47:00;1.90;;;1.77;;
4061;SDS011;2046;47.064;15.456;2022-09-27T05:49:29;2.17;;;1.98;;
4061;SDS011;2046;47.064;15.456;2022-09-27T05:51:56;3.30;;;2.05;;
4061;SDS011;2046;47.064;15.456;2022-09-27T05:54:23;2.45;;;1.70;;
4061;SDS011;2046;47.064;15.456;2022-09-27T05:56:53;3.63;;;2.40;;
4061;SDS011;2046;47.064;15.456;2022-09-27T05:59:19;2.78;;;2.17;;
4061;SDS011;2046;47.064;15.456;2022-09-27T06:01:46;2.35;;;2.15;;
4061;SDS011;2046;47.064;15.456;2022-09-27T06:04:13;2.50;;;2.10;;
4061;SDS011;2046;47.064;15.456;2022-09-27T06:06:40;2.22;;;2.03;;
4061;SDS011;2046;47.064;15.456;2022-09-27T06:09:10;2.75;;;1.88;;
4061;SDS011;2046;47.064;15.456;2022-09-27T06:11:37;3.63;;;2.30;;
4061;SDS011;2046;47.064;15.456;2022-09-27T06:14:08;5.45;;;2.50;;
4061;SDS011;2046;47.064;15.456;2022-09-27T06:16:35;5.28;;;2.50;;
4061;SDS011;2046;47.064;15.456;2022-09-27T06:19:01;4.05;;;2.28;;
4061;SDS011;2046;47.064;15.456;2022-09-27T06:21:29;5.28;;;2.90;;
4061;SDS011;2046;47.064;15.456;2022-09-27T06:23:57;3.28;;;2.33;;
4061;SDS011;2046;47.064;15.456;2022-09-27T06:26:25;6.28;;;1.83;;
4061;SDS011;2046;47.064;15.456;2022-09-27T06:28:54;3.47;;;2.25;;
4061;SDS011;2046;47.064;15.456;2022-09-27T06:31:21;10.00;;;2.80;;
4061;SDS011;2046;47.064;15.456;2022-09-27T06:33:48;5.00;;;2.40;;
4061;SDS011;2046;47.064;15.456;2022-09-27T06:36:15;5.00;;;2.53;;
4061;SDS011;2046;47.064;15.456;2022-09-27T06:38:46;8.02;;;2.67;;
4061;SDS011;2046;47.064;15.456;2022-09-27T06:41:14;3.53;;;2.42;;
4061;SDS011;2046;47.064;15.456;2022-09-27T06:43:41;4.15;;;2.40;;
4061;SDS011;2046;47.064;15.456;2022-09-27T06:46:08;3.72;;;2.45;;
4061;SDS011;2046;47.064;15.456;2022-09-27T06:48:34;6.30;;;2.40;;
4061;SDS011;2046;47.064;15.456;2022-09-27T06:51:04;4.22;;;2.30;;
4061;SDS011;2046;47.064;15.456;2022-09-27T06:53:30;2.03;;;1.83;;
4061;SDS011;2046;47.064;15.456;2022-09-27T06:55:57;5.60;;;2.38;;
4061;SDS011;2046;47.064;15.456;2022-09-27T06:58:25;4.20;;;2.47;;
4061;SDS011;2046;47.064;15.456;2022-09-27T07:01:10;4.05;;;2.45;;
4061;SDS011;2046;47.064;15.456;2022-09-27T07:03:37;5.93;;;2.63;;
4061;SDS011;2046;47.064;15.456;2022-09-27T07:06:09;4.93;;;2.28;;
4061;SDS011;2046;47.064;15.456;2022-09-27T07:08:37;4.60;;;2.40;;
4061;SDS011;2046;47.064;15.456;2022-09-27T07:11:04;8.95;;;3.25;;
4061;SDS011;2046;47.064;15.456;2022-09-27T07:13:31;6.20;;;3.05;;
4061;SDS011;2046;47.064;15.456;2022-09-27T07:16:00;7.38;;;2.50;;
4061;SDS011;2046;47.064;15.456;2022-09-27T07:18:26;3.08;;;2.25;;
4061;SDS011;2046;47.064;15.456;2022-09-27T07:20:53;5.88;;;2.40;;
4061;SDS011;2046;47.064;15.456;2022-09-27T07:23:25;2.72;;;2.25;;
4061;SDS011;2046;47.064;15.456;2022-09-27T07:25:52;7.35;;;3.17;;
4061;SDS011;2046;47.064;15.456;2022-09-27T07:28:19;2.88;;;2.30;;
4061;SDS011;2046;47.064;15.456;2022-09-27T07:30:47;6.93;;;3.55;;
4061;SDS011;2046;47.064;15.456;2022-09-27T07:33:14;5.53;;;3.20;;
4061;SDS011;2046;47.064;15.456;2022-09-27T07:35:41;4.93;;;2.47;;
4061;SDS011;2046;47.064;15.456;2022-09-27T07:38:09;6.25;;;2.47;;
4061;SDS011;2046;47.064;15.456;2022-09-27T07:40:39;5.13;;;2.30;;
4061;SDS011;2046;47.064;15.456;2022-09-27T07:43:06;3.88;;;2.22;;
4061;SDS011;2046;47.064;15.456;2022-09-27T07:45:34;6.20;;;2.83;;
4061;SDS011;2046;47.064;15.456;2022-09-27T07:48:04;3.10;;;2.13;;
4061;SDS011;2046;47.064;15.456;2022-09-27T07:50:31;5.55;;;2.47;;
4061;SDS011;2046;47.064;15.456;2022-09-27T07:52:58;5.22;;;2.10;;
4061;SDS011;2046;47.064;15.456;2022-09-27T07:55:24;4.90;;;2.13;;
4061;SDS011;2046;47.064;15.456;2022-09-27T07:57:51;6.75;;;2.75;;
4061;SDS011;2046;47.064;15.456;2022-09-27T08:00:18;5.50;;;2.20;;
4061;SDS011;2046;47.064;15.456;2022-09-27T08:02:45;5.20;;;2.20;;
4061;SDS011;2046;47.064;15.456;2022-09-27T08:05:12;4.45;;;2.05;;
4061;SDS011;2046;47.064;15.456;2022-09-27T08:07:39;3.08;;;2.05;;
4061;SDS011;2046;47.064;15.456;2022-09-27T08:10:06;4.32;;;2.35;;
4061;SDS011;2046;47.064;15.456;2022-09-27T08:12:36;3.63;;;2.65;;
4061;SDS011;2046;47.064;15.456;2022-09-27T08:15:03;2.55;;;2.03;;
4061;SDS011;2046;47.064;15.456;2022-09-27T08:17:30;3.67;;;2.15;;
4061;SDS011;2046;47.064;15.456;2022-09-27T08:19:57;6.97;;;2.60;;
4061;SDS011;2046;47.064;15.456;2022-09-27T08:22:24;4.72;;;2.25;;
4061;SDS011;2046;47.064;15.456;2022-09-27T08:24:50;3.47;;;2.25;;
4061;SDS011;2046;47.064;15.456;2022-09-27T08:27:17;2.47;;;1.85;;
4061;SDS011;2046;47.064;15.456;2022-09-27T08:29:44;6.28;;;2.60;;
4061;SDS011;2046;47.064;15.456;2022-09-27T08:32:11;5.93;;;2.53;;
4061;SDS011;2046;47.064;15.456;2022-09-27T08:34:38;7.70;;;2.30;;
4061;SDS011;2046;47.064;15.456;2022-09-27T08:37:04;5.78;;;2.63;;
4061;SDS011;2046;47.064;15.456;2022-09-27T08:39:31;5.40;;;2.45;;
4061;SDS011;2046;47.064;15.456;2022-09-27T08:49:35;16.73;;;5.68;;
4061;SDS011;2046;47.064;15.456;2022-09-27T08:52:12;10.65;;;5.90;;
4061;SDS011;2046;47.064;15.456;2022-09-27T08:54:42;7.35;;;5.93;;
4061;SDS011;2046;47.064;15.456;2022-09-27T08:57:10;5.95;;;4.15;;
4061;SDS011;2046;47.064;15.456;2022-09-27T09:02:26;9.38;;;4.85;;
4061;SDS011;2046;47.064;15.456;2022-09-27T09:04:55;8.93;;;4.65;;
4061;SDS011;2046;47.064;15.456;2022-09-27T09:09:58;10.93;;;4.65;;
4061;SDS011;2046;47.064;15.456;2022-09-27T09:18:28;13.75;;;9.88;;
4061;SDS011;2046;47.064;15.456;2022-09-27T09:20:54;25.75;;;16.02;;
4061;SDS011;2046;47.064;15.456;2022-09-27T09:33:54;12.95;;;10.00;;
4061;SDS011;2046;47.064;15.456;2022-09-27T09:38:49;11.43;;;9.98;;
4061;SDS011;2046;47.064;15.456;2022-09-27T09:41:21;16.33;;;11.52;;
4061;SDS011;2046;47.064;15.456;2022-09-27T09:43:54;15.70;;;10.75;;
4061;SDS011;2046;47.064;15.456;2022-09-27T09:46:25;12.18;;;10.93;;
4061;SDS011;2046;47.064;15.456;2022-09-27T09:48:54;12.07;;;10.88;;
4061;SDS011;2046;47.064;15.456;2022-09-27T09:51:28;13.25;;;11.05;;
4061;SDS011;2046;47.064;15.456;2022-09-27T09:56:31;13.50;;;11.73;;
4061;SDS011;2046;47.064;15.456;2022-09-27T09:58:58;14.15;;;12.07;;
4061;SDS011;2046;47.064;15.456;2022-09-27T10:01:29;12.98;;;11.77;;
4061;SDS011;2046;47.064;15.456;2022-09-27T10:03:58;14.27;;;12.52;;
4061;SDS011;2046;47.064;15.456;2022-09-27T10:06:25;14.13;;;12.82;;
4061;SDS011;2046;47.064;15.456;2022-09-27T10:08:52;14.75;;;13.32;;
4061;SDS011;2046;47.064;15.456;2022-09-27T10:11:25;14.27;;;13.07;;
4061;SDS011;2046;47.064;15.456;2022-09-27T10:13:52;14.07;;;12.63;;
4061;SDS011;2046;47.064;15.456;2022-09-27T10:16:21;10.95;;;9.88;;
4061;SDS011;2046;47.064;15.456;2022-09-27T10:18:48;17.73;;;11.82;;
4061;SDS011;2046;47.064;15.456;2022-09-27T10:21:29;27.42;;;12.57;;
4061;SDS011;2046;47.064;15.456;2022-09-27T10:24:03;18.88;;;10.90;;
4061;SDS011;2046;47.064;15.456;2022-09-27T10:26:30;17.42;;;8.90;;
4061;SDS011;2046;47.064;15.456;2022-09-27T10:28:57;9.90;;;7.32;;
4061;SDS011;2046;47.064;15.456;2022-09-27T10:31:39;11.05;;;6.10;;
4061;SDS011;2046;47.064;15.456;2022-09-27T10:34:44;6.65;;;4.38;;
4061;SDS011;2046;47.064;15.456;2022-09-27T10:37:05;7.28;;;3.90;;
4061;SDS011;2046;47.064;15.456;2022-09-27T10:39:32;7.72;;;3.80;;
4061;SDS011;2046;47.064;15.456;2022-09-27T10:41:59;7.22;;;3.63;;
4061;SDS011;2046;47.064;15.456;2022-09-27T10:44:29;3.88;;;2.83;;
4061;SDS011;2046;47.064;15.456;2022-09-27T10:46:59;4.03;;;2.97;;
4061;SDS011;2046;47.064;15.456;2022-09-27T10:49:41;2.83;;;2.40;;
4061;SDS011;2046;47.064;15.456;2022-09-27T10:52:17;2.95;;;2.50;;
4061;SDS011;2046;47.064;15.456;2022-09-27T10:57:47;2.53;;;2.33;;
4061;SDS011;2046;47.064;15.456;2022-09-27T11:00:25;3.35;;;2.17;;
4061;SDS011;2046;47.064;15.456;2022-09-27T11:02:53;2.20;;;2.00;;
4061;SDS011;2046;47.064;15.456;2022-09-27T11:07:49;1.80;;;1.67;;
4061;SDS011;2046;47.064;15.456;2022-09-27T11:13:04;2.30;;;2.10;;
4061;SDS011;2046;47.064;15.456;2022-09-27T11:15:33;3.47;;;1.70;;
4061;SDS011;2046;47.064;15.456;2022-09-27T11:18:04;6.78;;;2.47;;
4061;SDS011;2046;47.064;15.456;2022-09-27T11:23:45;66.95;;;21.83;;
4061;SDS011;2046;47.064;15.456;2022-09-27T11:29:22;53.95;;;19.50;;
4061;SDS011;2046;47.064;15.456;2022-09-27T11:40:26;30.02;;;11.02;;
4061;SDS011;2046;47.064;15.456;2022-09-27T11:43:00;28.33;;;10.27;;
4061;SDS011;2046;47.064;15.456;2022-09-27T12:02:24;14.20;;;5.30;;
4061;SDS011;2046;47.064;15.456;2022-09-27T12:09:55;8.48;;;3.97;;
4061;SDS011;2046;47.064;15.456;2022-09-27T12:12:26;9.27;;;4.15;;
4061;SDS011;2046;47.064;15.456;2022-09-27T12:17:24;7.00;;;3.08;;
4061;SDS011;2046;47.064;15.456;2022-09-27T12:19:52;6.65;;;3.33;;
4061;SDS011;2046;47.064;15.456;2022-09-27T12:22:20;7.47;;;3.00;;
4061;SDS011;2046;47.064;15.456;2022-09-27T12:25:13;5.82;;;3.05;;
4061;SDS011;2046;47.064;15.456;2022-09-27T12:27:48;4.78;;;2.80;;
4061;SDS011;2046;47.064;15.456;2022-09-27T12:30:17;6.60;;;3.25;;
4061;SDS011;2046;47.064;15.456;2022-09-27T12:32:54;5.43;;;2.90;;
4061;SDS011;2046;47.064;15.456;2022-09-27T12:35:28;5.72;;;2.88;;
4061;SDS011;2046;47.064;15.456;2022-09-27T12:40:30;5.95;;;2.70;;
4061;SDS011;2046;47.064;15.456;2022-09-27T12:45:35;6.80;;;2.72;;
4061;SDS011;2046;47.064;15.456;2022-09-27T12:50:42;4.63;;;2.50;;
4061;SDS011;2046;47.064;15.456;2022-09-27T12:53:11;2.95;;;2.03;;
4061;SDS011;2046;47.064;15.456;2022-09-27T13:01:02;4.88;;;2.38;;
4061;SDS011;2046;47.064;15.456;2022-09-27T13:06:37;3.80;;;2.08;;
4061;SDS011;2046;47.064;15.456;2022-09-27T13:09:15;6.28;;;2.50;;
4061;SDS011;2046;47.064;15.456;2022-09-27T13:14:16;4.25;;;2.05;;
4061;SDS011;2046;47.064;15.456;2022-09-27T13:16:44;3.17;;;2.17;;
4061;SDS011;2046;47.064;15.456;2022-09-27T13:21:54;4.47;;;2.10;;
4061;SDS011;2046;47.064;15.456;2022-09-27T13:24:28;6.13;;;1.95;;
4061;SDS011;2046;47.064;15.456;2022-09-27T13:26:55;3.85;;;1.60;;
4061;SDS011;2046;47.064;15.456;2022-09-27T13:29:27;3.67;;;1.80;;
4061;SDS011;2046;47.064;15.456;2022-09-27T13:37:26;4.07;;;1.90;;
4061;SDS011;2046;47.064;15.456;2022-09-27T13:45:26;5.18;;;2.05;;
4061;SDS011;2046;47.064;15.456;2022-09-27T13:47:55;7.03;;;1.77;;
4061;SDS011;2046;47.064;15.456;2022-09-27T13:50:27;9.55;;;3.05;;
4061;SDS011;2046;47.064;15.456;2022-09-27T13:55:37;12.90;;;9.35;;
4061;SDS011;2046;47.064;15.456;2022-09-27T13:58:13;6.00;;;3.42;;
4061;SDS011;2046;47.064;15.456;2022-09-27T14:00:41;9.55;;;2.95;;
4061;SDS011;2046;47.064;15.456;2022-09-27T14:06:19;3.00;;;1.98;;
4061;SDS011;2046;47.064;15.456;2022-09-27T14:08:48;3.60;;;1.90;;
4061;SDS011;2046;47.064;15.456;2022-09-27T14:11:18;4.13;;;1.90;;
4061;SDS011;2046;47.064;15.456;2022-09-27T14:13:46;3.75;;;1.55;;
4061;SDS011;2046;47.064;15.456;2022-09-27T14:16:15;2.92;;;1.88;;
4061;SDS011;2046;47.064;15.456;2022-09-27T14:18:44;3.35;;;1.70;;
4061;SDS011;2046;47.064;15.456;2022-09-27T14:23:41;2.03;;;1.65;;
4061;SDS011;2046;47.064;15.456;2022-09-27T14:26:20;2.38;;;1.40;;
4061;SDS011;2046;47.064;15.456;2022-09-27T14:28:48;4.75;;;1.58;;
4061;SDS011;2046;47.064;15.456;2022-09-27T14:31:15;2.15;;;1.60;;
4061;SDS011;2046;47.064;15.456;2022-09-27T14:33:43;3.45;;;1.20;;
4061;SDS011;2046;47.064;15.456;2022-09-27T14:36:29;1.80;;;1.35;;
4061;SDS011;2046;47.064;15.456;2022-09-27T14:39:35;3.47;;;1.63;;
4061;SDS011;2046;47.064;15.456;2022-09-27T14:42:04;2.38;;;1.05;;
4061;SDS011;2046;47.064;15.456;2022-09-27T14:44:31;4.47;;;1.48;;
4061;SDS011;2046;47.064;15.456;2022-09-27T14:47:08;4.85;;;1.20;;
4061;SDS011;2046;47.064;15.456;2022-09-27T14:49:35;2.65;;;1.20;;
4061;SDS011;2046;47.064;15.456;2022-09-27T14:52:01;3.40;;;1.23;;
4061;SDS011;2046;47.064;15.456;2022-09-27T14:54:28;4.53;;;1.70;;
4061;SDS011;2046;47.064;15.456;2022-09-27T14:56:57;5.22;;;1.95;;
4061;SDS011;2046;47.064;15.456;2022-09-27T15:01:56;26.05;;;9.75;;
4061;SDS011;2046;47.064;15.456;2022-09-27T15:04:26;28.48;;;9.75;;
4061;SDS011;2046;47.064;15.456;2022-09-27T15:06:54;28.17;;;9.70;;
4061;SDS011;2046;47.064;15.456;2022-09-27T15:09:21;25.15;;;8.57;;
4061;SDS011;2046;47.064;15.456;2022-09-27T15:11:50;30.67;;;16.00;;
4061;SDS011;2046;47.064;15.456;2022-09-27T15:14:18;34.00;;;16.17;;
4061;SDS011;2046;47.064;15.456;2022-09-27T15:16:46;31.02;;;13.60;;
4061;SDS011;2046;47.064;15.456;2022-09-27T15:19:17;27.05;;;14.07;;
4061;SDS011;2046;47.064;15.456;2022-09-27T15:21:47;28.77;;;10.88;;
4061;SDS011;2046;47.064;15.456;2022-09-27T15:26:59;26.88;;;9.52;;
4061;SDS011;2046;47.064;15.456;2022-09-27T15:29:26;21.95;;;9.27;;
4061;SDS011;2046;47.064;15.456;2022-09-27T15:32:04;20.55;;;9.15;;
4061;SDS011;2046;47.064;15.456;2022-09-27T15:34:31;22.23;;;9.27;;
4061;SDS011;2046;47.064;15.456;2022-09-27T15:37:00;22.55;;;8.57;;
4061;SDS011;2046;47.064;15.456;2022-09-27T15:39:32;20.35;;;8.10;;
4061;SDS011;2046;47.064;15.456;2022-09-27T15:44:35;38.78;;;16.50;;
4061;SDS011;2046;47.064;15.456;2022-09-27T15:47:02;28.25;;;11.88;;
4061;SDS011;2046;47.064;15.456;2022-09-27T15:49:29;31.35;;;12.13;;
4061;SDS011;2046;47.064;15.456;2022-09-27T15:51:57;25.70;;;10.55;;
4061;SDS011;2046;47.064;15.456;2022-09-27T15:54:25;31.20;;;10.50;;
4061;SDS011;2046;47.064;15.456;2022-09-27T15:56:52;22.17;;;8.48;;
4061;SDS011;2046;47.064;15.456;2022-09-27T15:59:22;22.73;;;8.38;;
4061;SDS011;2046;47.064;15.456;2022-09-27T16:01:51;20.38;;;8.00;;
4061;SDS011;2046;47.064;15.456;2022-09-27T16:04:20;16.88;;;6.85;;
4061;SDS011;2046;47.064;15.456;2022-09-27T16:06:46;16.27;;;7.28;;
4061;SDS011;2046;47.064;15.456;2022-09-27T16:09:16;18.67;;;7.05;;
4061;SDS011;2046;47.064;15.456;2022-09-27T16:11:47;15.35;;;6.10;;
4061;SDS011;2046;47.064;15.456;2022-09-27T16:14:14;15.52;;;6.90;;
4061;SDS011;2046;47.064;15.456;2022-09-27T16:16:44;16.58;;;6.68;;
4061;SDS011;2046;47.064;15.456;2022-09-27T16:19:11;15.00;;;6.07;;
4061;SDS011;2046;47.064;15.456;2022-09-27T16:21:38;16.17;;;5.85;;
4061;SDS011;2046;47.064;15.456;2022-09-27T16:24:04;23.38;;;9.13;;
4061;SDS011;2046;47.064;15.456;2022-09-27T16:26:31;28.20;;;10.88;;
4061;SDS011;2046;47.064;15.456;2022-09-27T16:28:59;25.77;;;10.25;;
4061;SDS011;2046;47.064;15.456;2022-09-27T16:31:26;23.52;;;9.30;;
4061;SDS011;2046;47.064;15.456;2022-09-27T16:33:52;23.40;;;9.80;;
4061;SDS011;2046;47.064;15.456;2022-09-27T16:36:19;22.65;;;8.50;;
4061;SDS011;2046;47.064;15.456;2022-09-27T16:38:49;16.98;;;6.78;;
4061;SDS011;2046;47.064;15.456;2022-09-27T16:41:17;17.15;;;7.20;;
4061;SDS011;2046;47.064;15.456;2022-09-27T16:43:44;11.20;;;5.20;;
4061;SDS011;2046;47.064;15.456;2022-09-27T16:46:11;17.38;;;6.75;;
4061;SDS011;2046;47.064;15.456;2022-09-27T16:48:41;16.52;;;7.30;;
4061;SDS011;2046;47.064;15.456;2022-09-27T16:51:12;15.23;;;6.57;;
4061;SDS011;2046;47.064;15.456;2022-09-27T16:53:57;16.83;;;6.47;;
4061;SDS011;2046;47.064;15.456;2022-09-27T16:56:24;13.68;;;6.05;;
4061;SDS011;2046;47.064;15.456;2022-09-27T16:58:51;14.38;;;6.22;;
4061;SDS011;2046;47.064;15.456;2022-09-27T17:01:17;14.07;;;5.43;;
4061;SDS011;2046;47.064;15.456;2022-09-27T17:03:47;14.68;;;5.78;;
4061;SDS011;2046;47.064;15.456;2022-09-27T17:06:18;13.55;;;5.68;;
4061;SDS011;2046;47.064;15.456;2022-09-27T17:08:44;15.85;;;5.43;;
4061;SDS011;2046;47.064;15.456;2022-09-27T17:11:12;12.07;;;5.10;;
4061;SDS011;2046;47.064;15.456;2022-09-27T17:13:40;10.25;;;4.45;;
4061;SDS011;2046;47.064;15.456;2022-09-27T17:16:07;11.35;;;5.00;;
4061;SDS011;2046;47.064;15.456;2022-09-27T17:18:34;9.73;;;4.70;;
4061;SDS011;2046;47.064;15.456;2022-09-27T17:21:01;11.13;;;4.80;;
4061;SDS011;2046;47.064;15.456;2022-09-27T17:23:31;12.23;;;3.45;;
4061;SDS011;2046;47.064;15.456;2022-09-27T17:26:02;11.50;;;4.50;;
4061;SDS011;2046;47.064;15.456;2022-09-27T17:28:30;11.77;;;4.88;;
4061;SDS011;2046;47.064;15.456;2022-09-27T17:31:01;9.40;;;4.55;;
4061;SDS011;2046;47.064;15.456;2022-09-27T17:33:28;10.85;;;4.57;;
4061;SDS011;2046;47.064;15.456;2022-09-27T17:35:57;8.35;;;4.40;;
4061;SDS011;2046;47.064;15.456;2022-09-27T17:38:25;7.85;;;3.88;;
4061;SDS011;2046;47.064;15.456;2022-09-27T17:40:58;10.48;;;3.92;;
4061;SDS011;2046;47.064;15.456;2022-09-27T17:43:25;10.45;;;4.18;;
4061;SDS011;2046;47.064;15.456;2022-09-27T17:45:52;7.78;;;3.35;;
4061;SDS011;2046;47.064;15.456;2022-09-27T17:48:19;9.77;;;4.50;;
4061;SDS011;2046;47.064;15.456;2022-09-27T17:51:10;9.23;;;3.63;;
4061;SDS011;2046;47.064;15.456;2022-09-27T17:53:37;6.47;;;3.40;;
4061;SDS011;2046;47.064;15.456;2022-09-27T17:56:04;7.43;;;3.22;;
4061;SDS011;2046;47.064;15.456;2022-09-27T17:58:30;12.20;;;3.60;;
4061;SDS011;2046;47.064;15.456;2022-09-27T18:01:06;9.25;;;4.75;;
4061;SDS011;2046;47.064;15.456;2022-09-27T18:03:33;22.35;;;10.55;;
4061;SDS011;2046;47.064;15.456;2022-09-27T18:06:06;13.10;;;7.57;;